Time;durP1;ratioP1;P1;durP2;ratioP2;P2;SDS_P1;SDS_P2;PMS_P1;PMS_P2;Temp;Humidity;BMP_temperature;BMP_pressure;BME280_temperature;BME280_humidity;BME280_pressure;Samples;Min_cycle;Max_cycle;Signal;HPM_P1;HPM_P2
2022/10/29 00:01:29;;;;;;;18.10;5.63;;;;;;;14.52;100.00;101185.16;4951767;28;20027;-76
2022/10/29 00:03:54;;;;;;;24.80;6.40;;;;;;;14.50;100.00;101181.81;4952268;28;20122;-76
2022/10/29 00:06:20;;;;;;;25.57;5.53;;;;;;;14.56;100.00;101187.34;4935964;28;20053;-76
2022/10/29 00:08:45;;;;;;;26.60;5.93;;;;;;;14.50;100.00;101188.03;4947427;28;20054;-76
2022/10/29 00:11:20;;;;;;;20.03;5.87;;;;;;;14.53;100.00;101189.50;4949812;28;20046;-76
2022/10/29 00:13:47;;;;;;;30.42;6.90;;;;;;;14.57;100.00;101198.94;4953331;28;20031;-76
2022/10/29 00:16:18;;;;;;;20.77;6.35;;;;;;;14.46;100.00;101201.97;4953223;28;20049;-76
2022/10/29 00:18:44;;;;;;;28.75;6.70;;;;;;;14.45;100.00;101197.63;4960967;28;20043;-76
2022/10/29 00:21:15;;;;;;;22.02;6.90;;;;;;;14.46;100.00;101221.63;4940792;28;20023;-76
2022/10/29 00:23:40;;;;;;;25.85;6.82;;;;;;;14.40;100.00;101230.41;4930308;28;20110;-76
2022/10/29 00:26:06;;;;;;;21.60;7.13;;;;;;;14.36;100.00;101227.22;4954628;28;20102;-76
2022/10/29 00:28:32;;;;;;;20.15;5.95;;;;;;;14.38;100.00;101237.78;4929539;28;20291;-76
2022/10/29 00:31:11;;;;;;;22.45;5.78;;;;;;;14.40;100.00;101240.28;4955234;28;20027;-76
2022/10/29 00:33:37;;;;;;;18.92;5.97;;;;;;;14.41;100.00;101247.34;4951131;28;20046;-76
2022/10/29 00:36:05;;;;;;;27.57;5.63;;;;;;;14.44;100.00;101249.69;4946904;28;20043;-76
2022/10/29 00:38:32;;;;;;;21.45;5.40;;;;;;;14.47;100.00;101236.75;4939568;29;20032;-76
2022/10/29 00:40:57;;;;;;;21.70;4.88;;;;;;;14.42;100.00;101232.91;4949157;28;20522;-76
2022/10/29 00:43:25;;;;;;;24.52;6.30;;;;;;;14.38;100.00;101242.34;4947998;28;20396;-76
2022/10/29 00:45:56;;;;;;;28.05;6.45;;;;;;;14.34;100.00;101237.28;4933349;29;20179;-76
2022/10/29 00:48:25;;;;;;;22.83;6.15;;;;;;;14.24;100.00;101235.84;4935248;28;20619;-76
2022/10/29 00:50:52;;;;;;;20.73;6.15;;;;;;;14.24;100.00;101236.69;4941152;28;21226;-75
2022/10/29 00:53:22;;;;;;;25.13;6.07;;;;;;;14.24;100.00;101235.84;4951729;28;20427;-76
2022/10/29 00:55:48;;;;;;;27.85;7.57;;;;;;;14.15;100.00;101216.25;4952825;28;20063;-78
2022/10/29 00:58:13;;;;;;;29.20;5.43;;;;;;;14.21;100.00;101242.41;4949388;28;20447;-75
2022/10/29 01:00:39;;;;;;;17.02;4.38;;;;;;;14.26;100.00;101234.66;4949108;28;20035;-76
2022/10/29 01:03:05;;;;;;;18.13;5.87;;;;;;;14.18;100.00;101225.81;4947556;28;20030;-76
2022/10/29 01:05:32;;;;;;;;;;;;;;;14.15;100.00;101240.41;4946238;28;20031;-76
2022/10/29 01:07:58;;;;;;;20.27;5.53;;;;;;;14.07;100.00;101237.75;4954837;28;20012;-77
2022/10/29 01:10:48;;;;;;;19.02;5.32;;;;;;;14.07;100.00;101245.78;4948805;28;20524;-76
2022/10/29 01:13:42;;;;;;;25.85;5.03;;;;;;;14.09;100.00;101259.88;4952741;28;20037;-76
2022/10/29 01:16:41;;;;;;;27.73;6.22;;;;;;;14.03;100.00;101266.81;4962787;28;20035;-76
2022/10/29 01:19:18;;;;;;;29.58;6.88;;;;;;;13.94;100.00;101268.66;4958155;28;20079;-76
2022/10/29 01:21:50;;;;;;;19.58;6.05;;;;;;;13.86;100.00;101271.38;4950286;28;20564;-76
2022/10/29 01:24:45;;;;;;;25.13;6.85;;;;;;;13.78;100.00;101286.66;4936013;29;20042;-77
2022/10/29 01:27:23;;;;;;;27.58;7.43;;;;;;;13.75;100.00;101295.06;4933127;28;20039;-76
2022/10/29 01:30:00;;;;;;;28.10;4.88;;;;;;;13.69;100.00;101308.13;4948500;28;20413;-77
2022/10/29 01:32:57;;;;;;;25.30;6.45;;;;;;;13.65;100.00;101305.94;4950891;28;20047;-76
2022/10/29 01:35:33;;;;;;;25.48;6.28;;;;;;;13.69;100.00;101320.69;4960595;28;20039;-77
2022/10/29 01:38:08;;;;;;;;;;;;;;;13.57;100.00;101316.69;4942467;28;20101;-77
2022/10/29 01:40:44;;;;;;;23.50;6.32;;;;;;;13.41;100.00;101313.00;4950296;28;19918;-76
2022/10/29 01:43:42;;;;;;;24.17;5.75;;;;;;;13.38;100.00;101299.91;4951452;28;20039;-76
2022/10/29 01:46:13;;;;;;;19.80;5.43;;;;;;;13.27;100.00;101276.97;4939176;28;20039;-77
2022/10/29 01:48:44;;;;;;;32.05;6.63;;;;;;;13.18;100.00;101277.94;4947653;28;20047;-76
2022/10/29 01:51:22;;;;;;;21.52;4.53;;;;;;;13.20;100.00;101283.13;4949176;28;20122;-76
2022/10/29 01:53:49;;;;;;;25.92;6.15;;;;;;;13.13;100.00;101268.69;4946151;28;20125;-77
2022/10/29 01:56:15;;;;;;;25.17;4.65;;;;;;;12.99;100.00;101279.06;4941475;28;20018;-75
2022/10/29 01:58:46;;;;;;;21.75;4.97;;;;;;;13.08;100.00;101287.97;4944557;28;20404;-76
2022/10/29 02:01:29;;;;;;;25.17;4.82;;;;;;;13.08;100.00;101282.59;4954503;28;20030;-76
2022/10/29 02:04:18;;;;;;;35.47;7.28;;;;;;;12.93;100.00;101279.75;4961330;28;20113;-76
2022/10/29 02:06:59;;;;;;;26.95;5.43;;;;;;;12.85;100.00;101285.94;4945126;28;20086;-76
2022/10/29 02:09:38;;;;;;;21.08;5.28;;;;;;;12.87;100.00;101312.56;4945507;28;20118;-76
2022/10/29 02:12:22;;;;;;;21.90;5.22;;;;;;;12.89;100.00;101332.00;4941979;28;20039;-76
2022/10/29 02:15:06;;;;;;;21.48;5.30;;;;;;;12.89;100.00;101318.59;4945563;28;20046;-75
2022/10/29 02:17:33;;;;;;;22.70;5.38;;;;;;;12.77;100.00;101311.88;4933249;28;20374;-76
2022/10/29 02:20:03;;;;;;;26.50;5.68;;;;;;;12.77;100.00;101323.41;4934757;28;20034;-75
2022/10/29 02:22:28;;;;;;;31.33;4.78;;;;;;;12.72;100.00;101322.25;4945067;28;20178;-76
2022/10/29 02:24:53;;;;;;;18.13;4.47;;;;;;;12.70;100.00;101329.59;4951182;28;20117;-76
2022/10/29 02:27:19;;;;;;;25.80;4.73;;;;;;;12.56;100.00;101325.69;4940337;28;20035;-76
2022/10/29 02:29:44;;;;;;;21.83;4.90;;;;;;;12.53;100.00;101336.72;4946764;28;20047;-77
2022/10/29 02:32:09;;;;;;;25.60;4.50;;;;;;;12.50;100.00;101353.09;4933124;29;20038;-76
2022/10/29 02:34:35;;;;;;;20.57;5.57;;;;;;;12.40;100.00;101350.56;4951472;28;20043;-75
2022/10/29 02:37:00;;;;;;;27.43;4.90;;;;;;;12.32;100.00;101340.66;4956157;28;20090;-75
2022/10/29 02:39:25;;;;;;;26.13;5.53;;;;;;;12.37;100.00;101358.91;4946922;28;20078;-77
2022/10/29 02:41:51;;;;;;;22.93;4.63;;;;;;;12.27;100.00;101347.44;4958530;28;20027;-77
2022/10/29 02:44:16;;;;;;;24.53;4.77;;;;;;;12.29;100.00;101350.81;4951707;28;20067;-76
2022/10/29 02:46:41;;;;;;;34.63;8.00;;;;;;;12.32;100.00;101355.88;4941954;28;20043;-77
2022/10/29 02:49:07;;;;;;;25.43;6.73;;;;;;;12.21;100.00;101344.41;4930074;29;20032;-76
2022/10/29 02:51:32;;;;;;;26.10;5.13;;;;;;;12.18;100.00;101342.06;4951175;28;20552;-75
2022/10/29 02:53:58;;;;;;;17.80;4.87;;;;;;;12.14;100.00;101339.88;4951651;28;20432;-78
2022/10/29 02:56:23;;;;;;;29.33;5.30;;;;;;;12.09;100.00;101339.50;4948057;28;20501;-76
2022/10/29 02:58:48;;;;;;;19.93;4.00;;;;;;;12.03;100.00;101335.59;4945540;28;20485;-75
2022/10/29 03:01:14;;;;;;;24.87;3.90;;;;;;;11.99;100.00;101344.97;4947480;28;20035;-76
2022/10/29 03:03:39;;;;;;;30.83;4.93;;;;;;;11.87;100.00;101340.81;4950204;28;20396;-77
2022/10/29 03:06:12;;;;;;;21.73;4.73;;;;;;;11.80;100.00;101349.50;4931342;29;20023;-76
2022/10/29 03:08:37;;;;;;;30.20;5.35;;;;;;;11.80;100.00;101362.03;4945239;28;20039;-75
2022/10/29 03:11:02;;;;;;;27.10;7.33;;;;;;;11.69;100.00;101348.91;4947494;28;20516;-75
2022/10/29 03:13:28;;;;;;;29.20;5.23;;;;;;;11.66;100.00;101358.06;4937546;29;20042;-76
2022/10/29 03:15:53;;;;;;;20.13;4.37;;;;;;;11.62;100.00;101351.34;4969552;28;20122;-76
2022/10/29 03:18:18;;;;;;;19.03;3.77;;;;;;;11.55;100.00;101344.94;4950845;28;20023;-77
2022/10/29 03:20:44;;;;;;;27.67;4.90;;;;;;;11.40;100.00;101345.47;4937613;28;20091;-77
2022/10/29 03:23:09;;;;;;;21.45;4.32;;;;;;;11.29;100.00;101336.84;4939908;29;20077;-77
2022/10/29 03:25:35;;;;;;;27.97;4.93;;;;;;;11.30;100.00;101339.34;4947558;28;20047;-76
2022/10/29 03:28:03;;;;;;;28.13;4.70;;;;;;;11.32;100.00;101342.72;4935549;29;20031;-76
2022/10/29 03:30:29;;;;;;;37.83;6.03;;;;;;;11.39;100.00;101359.81;4934540;29;20066;-77
2022/10/29 03:32:54;;;;;;;27.97;4.67;;;;;;;11.34;100.00;101356.78;4970181;28;20042;-77
2022/10/29 03:35:20;;;;;;;29.60;4.93;;;;;;;11.36;100.00;101373.50;4950673;28;20031;-76
2022/10/29 03:37:49;;;;;;;28.35;6.13;;;;;;;11.35;100.00;101369.13;4933936;28;20103;-77
2022/10/29 03:40:15;;;;;;;32.65;5.80;;;;;;;11.18;100.00;101354.78;4950715;28;20444;-77
2022/10/29 03:42:40;;;;;;;22.02;5.15;;;;;;;11.29;100.00;101363.59;4948092;28;20114;-77
2022/10/29 03:45:06;;;;;;;25.50;5.03;;;;;;;11.38;100.00;101384.91;4954448;28;20027;-77
2022/10/29 03:47:32;;;;;;;29.45;4.80;;;;;;;11.27;100.00;101365.56;4947272;28;20351;-75
2022/10/29 03:49:57;;;;;;;;;;;;;;;11.27;100.00;101387.78;4951103;28;20335;-76
2022/10/29 03:52:23;;;;;;;;;;;;;;;11.18;100.00;101391.34;4958755;28;19968;-76
2022/10/29 03:54:48;;;;;;;25.80;4.40;;;;;;;11.13;100.00;101385.63;4932053;28;19911;-75
2022/10/29 03:57:13;;;;;;;27.83;6.30;;;;;;;11.00;100.00;101377.97;4939073;29;20040;-76
2022/10/29 03:59:39;;;;;;;26.73;4.70;;;;;;;10.96;100.00;101380.09;4948013;28;20481;-77
2022/10/29 04:02:05;;;;;;;28.00;5.93;;;;;;;10.97;100.00;101389.78;4934474;29;20453;-76
2022/10/29 04:04:30;;;;;;;38.33;5.55;;;;;;;10.86;100.00;101384.63;4936334;29;20035;-76
2022/10/29 04:06:55;;;;;;;22.23;3.97;;;;;;;10.89;100.00;101394.22;4953279;28;20082;-77
2022/10/29 04:09:21;;;;;;;24.63;3.93;;;;;;;10.86;100.00;101400.66;4954905;28;20034;-76
2022/10/29 04:11:46;;;;;;;30.87;5.17;;;;;;;10.83;100.00;101376.94;4931963;28;20102;-75
2022/10/29 04:14:11;;;;;;;27.30;4.77;;;;;;;10.88;100.00;101382.66;4938636;29;20507;-77
2022/10/29 04:16:37;;;;;;;26.57;6.07;;;;;;;10.90;100.00;101387.88;4947729;28;20039;-76
2022/10/29 04:19:03;;;;;;;29.27;5.13;;;;;;;10.92;100.00;101389.41;4934077;28;20034;-74
2022/10/29 04:21:28;;;;;;;23.98;5.18;;;;;;;10.93;100.00;101398.25;4954139;28;20427;-75
2022/10/29 04:23:54;;;;;;;24.77;5.07;;;;;;;10.86;100.00;101389.97;4944278;28;20043;-76
2022/10/29 04:26:19;;;;;;;31.27;5.07;;;;;;;10.82;100.00;101399.31;4944171;28;20045;-76
2022/10/29 04:28:48;;;;;;;31.13;5.20;;;;;;;10.63;100.00;101410.06;4948165;28;20520;-79
2022/10/29 04:31:14;;;;;;;28.85;4.38;;;;;;;10.54;100.00;101417.97;4954452;28;20022;-77
2022/10/29 04:33:39;;;;;;;25.30;4.20;;;;;;;10.46;100.00;101425.84;4953291;28;20035;-76
2022/10/29 04:36:05;;;;;;;21.57;3.60;;;;;;;10.33;100.00;101404.81;4945889;28;20027;-77
2022/10/29 04:38:30;;;;;;;25.67;6.38;;;;;;;10.29;100.00;101413.25;4933023;29;20034;-77
2022/10/29 04:41:00;;;;;;;20.27;3.90;;;;;;;10.26;100.00;101429.53;4951883;28;20038;-75
2022/10/29 04:43:26;;;;;;;26.60;4.80;;;;;;;10.15;100.00;101423.38;4933020;29;20110;-75
2022/10/29 04:45:53;;;;;;;22.02;4.05;;;;;;;10.10;100.00;101406.13;4939123;28;20686;-76
2022/10/29 04:48:19;;;;;;;22.08;4.32;;;;;;;10.05;100.00;101384.38;4931287;29;20520;-76
2022/10/29 04:50:44;;;;;;;27.92;5.47;;;;;;;10.07;100.00;101367.22;4948143;28;20043;-77
2022/10/29 04:53:10;;;;;;;34.13;7.93;;;;;;;10.13;100.00;101353.28;4956305;28;20039;-76
2022/10/29 04:55:39;;;;;;;21.77;5.40;;;;;;;10.25;100.00;101364.63;4944118;28;20066;-76
2022/10/29 04:58:05;;;;;;;37.53;5.00;;;;;;;10.33;100.00;101374.63;4952142;28;20039;-77
2022/10/29 05:00:32;;;;;;;29.60;6.55;;;;;;;10.31;100.00;101377.44;4949036;28;20099;-76
2022/10/29 05:02:57;;;;;;;19.33;4.18;;;;;;;10.33;100.00;101395.97;4934557;28;20344;-76
2022/10/29 05:05:23;;;;;;;35.95;6.55;;;;;;;10.35;100.00;101402.84;4947553;28;20035;-76
2022/10/29 05:07:55;;;;;;;25.83;4.88;;;;;;;10.28;100.00;101406.22;4946147;28;20040;-77
2022/10/29 05:10:20;;;;;;;16.63;5.18;;;;;;;10.18;100.00;101402.72;4935404;28;20038;-76
2022/10/29 05:12:46;;;;;;;27.60;5.70;;;;;;;10.14;100.00;101400.34;4944701;28;20696;-77
2022/10/29 05:15:11;;;;;;;23.80;4.70;;;;;;;10.06;100.00;101400.22;4946612;28;20083;-76
2022/10/29 05:17:40;;;;;;;25.97;3.40;;;;;;;10.01;100.00;101407.81;4950739;28;20059;-77
2022/10/29 05:20:06;;;;;;;21.00;4.97;;;;;;;9.94;100.00;101410.19;4942217;28;20111;-77
2022/10/29 05:22:31;;;;;;;20.70;3.85;;;;;;;10.03;100.00;101415.69;4945786;28;20118;-77
2022/10/29 05:24:56;;;;;;;13.07;3.37;;;;;;;9.88;100.00;101415.25;4946427;28;20488;-77
2022/10/29 05:27:22;;;;;;;20.87;3.93;;;;;;;9.83;100.00;101431.72;4946481;28;20050;-77
2022/10/29 05:29:47;;;;;;;25.23;4.80;;;;;;;9.80;100.00;101425.78;4956111;28;20035;-75
2022/10/29 05:32:12;;;;;;;23.27;4.60;;;;;;;9.72;100.00;101421.19;4946667;28;20047;-77
2022/10/29 05:34:37;;;;;;;19.47;3.87;;;;;;;9.70;100.00;101429.31;4949025;28;20047;-76
2022/10/29 05:37:03;;;;;;;15.73;3.80;;;;;;;9.61;100.00;101416.81;4937905;28;20050;-77
2022/10/29 05:39:28;;;;;;;29.93;4.80;;;;;;;9.63;100.00;101425.50;4946266;28;20039;-77
2022/10/29 05:41:53;;;;;;;20.10;5.10;;;;;;;9.50;100.00;101416.94;4951734;28;20034;-77
2022/10/29 05:44:19;;;;;;;42.73;6.40;;;;;;;9.58;100.00;101433.09;4947939;28;20023;-77
2022/10/29 05:46:48;;;;;;;13.80;4.30;;;;;;;9.55;100.00;101422.69;4950306;28;20038;-77
2022/10/29 05:49:14;;;;;;;20.90;4.32;;;;;;;9.49;100.00;101420.59;4945165;28;20086;-77
2022/10/29 05:51:39;;;;;;;21.63;5.23;;;;;;;9.38;100.00;101388.75;4932790;28;20518;-76
2022/10/29 05:54:04;;;;;;;26.80;7.27;;;;;;;9.48;100.00;101395.78;4946228;28;20042;-77
2022/10/29 05:56:30;;;;;;;27.80;6.27;;;;;;;9.48;100.00;101406.44;4949677;28;20034;-76
2022/10/29 05:58:55;;;;;;;31.37;6.83;;;;;;;9.46;100.00;101407.56;4950553;28;20035;-77
2022/10/29 06:01:20;;;;;;;26.53;7.13;;;;;;;9.60;100.00;101422.28;4946161;28;20038;-77
2022/10/29 06:03:46;;;;;;;20.60;5.67;;;;;;;9.60;100.00;101427.59;4948706;28;20035;-77
2022/10/29 06:06:11;;;;;;;29.83;6.78;;;;;;;9.56;100.00;101432.38;4939270;28;20027;-77
2022/10/29 06:08:36;;;;;;;27.13;7.07;;;;;;;9.53;100.00;101432.69;4944958;28;20101;-77
2022/10/29 06:11:02;;;;;;;19.97;5.57;;;;;;;9.57;100.00;101444.72;4934156;28;20031;-77
2022/10/29 06:13:28;;;;;;;26.17;7.45;;;;;;;9.66;100.00;101451.88;4945697;28;20062;-76
2022/10/29 06:15:57;;;;;;;17.58;5.45;;;;;;;9.73;100.00;101442.34;4946855;28;20073;-77
2022/10/29 06:18:23;;;;;;;23.30;7.07;;;;;;;9.83;100.00;101445.03;4951409;28;20043;-77
2022/10/29 06:20:48;;;;;;;22.80;7.30;;;;;;;9.87;100.00;101440.25;4943971;28;20457;-77
2022/10/29 06:23:13;;;;;;;41.47;10.30;;;;;;;10.15;100.00;101438.53;4935063;29;20279;-77
2022/10/29 06:25:39;;;;;;;37.33;9.80;;;;;;;10.23;100.00;101445.81;4927733;29;20035;-77
2022/10/29 06:28:07;;;;;;;31.20;7.67;;;;;;;10.24;100.00;101443.03;4946091;29;20477;-77
2022/10/29 06:30:33;;;;;;;31.35;9.48;;;;;;;10.19;100.00;101429.28;4948747;28;20035;-77
2022/10/29 06:32:59;;;;;;;31.73;10.15;;;;;;;10.29;100.00;101451.47;4950775;28;20023;-77
2022/10/29 06:35:25;;;;;;;34.60;10.15;;;;;;;10.34;100.00;101443.03;4950909;28;20058;-77
2022/10/29 06:37:50;;;;;;;27.63;9.02;;;;;;;10.40;100.00;101444.31;4928151;28;20070;-76
2022/10/29 06:40:16;;;;;;;27.07;8.43;;;;;;;10.41;100.00;101446.81;4934790;28;20109;-77
2022/10/29 06:42:41;;;;;;;46.60;14.25;;;;;;;10.45;100.00;101450.88;4943763;28;20477;-76
2022/10/29 06:45:07;;;;;;;52.23;15.33;;;;;;;10.62;100.00;101461.78;4945862;28;20035;-77
2022/10/29 06:47:43;;;;;;;54.65;15.55;;;;;;;10.61;100.00;101476.16;4955034;28;20572;-77
2022/10/29 06:50:11;;;;;;;36.08;13.38;;;;;;;10.65;100.00;101482.84;4948800;28;20059;-77
2022/10/29 06:52:37;;;;;;;33.67;12.77;;;;;;;10.64;100.00;101484.69;4947769;28;20525;-77
2022/10/29 06:55:04;;;;;;;59.55;14.48;;;;;;;10.61;100.00;101478.81;4954043;28;20063;-75
2022/10/29 06:57:30;;;;;;;66.63;15.18;;;;;;;10.68;100.00;101482.59;4948952;28;20023;-77
2022/10/29 06:59:55;;;;;;;58.00;16.88;;;;;;;10.63;100.00;101464.31;4931946;29;20046;-76
2022/10/29 07:02:21;;;;;;;77.27;18.37;;;;;;;10.67;100.00;101463.03;4954279;28;20038;-77
2022/10/29 07:04:47;;;;;;;69.55;19.65;;;;;;;10.68;100.00;101455.88;4932311;28;20043;-77
2022/10/29 07:07:13;;;;;;;39.17;16.10;;;;;;;10.82;100.00;101484.78;4949211;28;20049;-76
2022/10/29 07:09:39;;;;;;;49.05;16.48;;;;;;;10.82;100.00;101466.09;4948395;28;20027;-77
2022/10/29 07:12:05;;;;;;;42.10;15.73;;;;;;;10.93;100.00;101479.25;4949197;28;20149;-77
2022/10/29 07:14:30;;;;;;;49.72;18.27;;;;;;;10.88;100.00;101475.31;4948588;28;20054;-77
2022/10/29 07:16:56;;;;;;;59.10;17.63;;;;;;;10.89;100.00;101480.53;4953187;28;20162;-77
2022/10/29 07:19:21;;;;;;;70.63;18.43;;;;;;;10.88;100.00;101486.00;4946170;28;21204;-76
2022/10/29 07:21:46;;;;;;;56.40;18.37;;;;;;;10.91;100.00;101486.59;4946651;28;20031;-77
2022/10/29 07:24:12;;;;;;;79.03;20.07;;;;;;;10.93;100.00;101489.94;4949250;28;20046;-75
2022/10/29 07:26:37;;;;;;;81.07;17.87;;;;;;;10.80;100.00;101494.78;4953973;28;20043;-76
2022/10/29 07:29:02;;;;;;;102.67;19.27;;;;;;;10.73;100.00;101485.66;4946169;28;20042;-76
2022/10/29 07:31:29;;;;;;;53.23;16.03;;;;;;;10.82;100.00;101483.94;4954109;28;20042;-77
2022/10/29 07:33:55;;;;;;;42.10;15.23;;;;;;;10.80;100.00;101483.25;4947866;28;20061;-76
2022/10/29 07:36:21;;;;;;;;;;;;;;;10.91;100.00;101478.56;4949835;28;20039;-76
2022/10/29 07:38:46;;;;;;;;;;;;;;;11.00;100.00;101482.16;4931509;28;19974;-77
2022/10/29 07:41:11;;;;;;;27.93;13.73;;;;;;;11.02;100.00;101490.03;4942757;28;20361;-76
2022/10/29 07:43:37;;;;;;;47.77;14.90;;;;;;;10.85;100.00;101471.13;4948139;28;20039;-76
2022/10/29 07:46:02;;;;;;;39.87;15.57;;;;;;;10.82;100.00;101468.75;4948919;28;20027;-76
2022/10/29 07:48:28;;;;;;;47.97;14.97;;;;;;;10.76;100.00;101469.34;4948586;28;20035;-76
2022/10/29 07:50:57;;;;;;;36.60;12.93;;;;;;;10.68;100.00;101469.22;4948193;28;20031;-76
2022/10/29 07:53:22;;;;;;;50.15;13.98;;;;;;;10.79;100.00;101479.72;4948593;28;20164;-76
2022/10/29 07:55:52;;;;;;;40.60;15.73;;;;;;;10.60;100.00;101471.78;4946303;28;20078;-76
2022/10/29 07:58:18;;;;;;;41.35;15.23;;;;;;;10.72;100.00;101479.47;4948422;28;20043;-76
2022/10/29 08:00:43;;;;;;;33.43;14.43;;;;;;;10.87;100.00;101471.00;4950652;28;20038;-76
2022/10/29 08:03:11;;;;;;;39.03;15.60;;;;;;;10.95;100.00;101485.28;4948311;28;20066;-76
2022/10/29 08:05:36;;;;;;;33.45;14.95;;;;;;;10.93;100.00;101481.94;4945923;28;20031;-76
2022/10/29 08:08:02;;;;;;;33.47;13.57;;;;;;;10.79;100.00;101479.72;4948018;28;20043;-75
2022/10/29 08:10:29;;;;;;;26.15;13.20;;;;;;;10.98;100.00;101487.69;4936236;28;20046;-76
2022/10/29 08:12:56;;;;;;;36.60;14.55;;;;;;;10.76;100.00;101478.19;4963426;28;20035;-76
2022/10/29 08:15:23;;;;;;;33.35;13.38;;;;;;;10.62;100.00;101484.00;4941502;28;20180;-76
2022/10/29 08:17:49;;;;;;;52.22;13.98;;;;;;;10.35;100.00;101476.75;4930590;28;20050;-76
2022/10/29 08:20:15;;;;;;;34.20;13.27;;;;;;;10.52;100.00;101492.03;4946608;28;20114;-76
2022/10/29 08:22:41;;;;;;;26.40;12.25;;;;;;;10.49;100.00;101484.31;4946670;28;20185;-76
2022/10/29 08:25:06;;;;;;;86.22;14.77;;;;;;;10.57;100.00;101497.78;4951410;28;20039;-77
2022/10/29 08:27:32;;;;;;;30.40;12.63;;;;;;;10.72;100.00;101499.97;4928983;28;20035;-76
2022/10/29 08:29:57;;;;;;;31.20;12.23;;;;;;;10.57;100.00;101492.44;4947569;28;20045;-75
2022/10/29 08:32:22;;;;;;;25.07;12.27;;;;;;;10.63;100.00;101500.84;4948259;28;20031;-76
2022/10/29 08:34:48;;;;;;;30.10;13.27;;;;;;;10.67;100.00;101496.91;4945899;28;20149;-76
2022/10/29 08:37:13;;;;;;;30.83;13.57;;;;;;;10.77;100.00;101503.09;4947102;28;20027;-76
2022/10/29 08:39:38;;;;;;;27.13;12.93;;;;;;;10.76;100.00;101496.88;4951453;28;20397;-76
2022/10/29 08:42:21;;;;;;;28.80;12.97;;;;;;;10.90;100.00;101508.91;4947460;28;20420;-76
2022/10/29 08:44:56;;;;;;;30.70;14.10;;;;;;;10.98;100.00;101510.88;4950208;28;20051;-76
2022/10/29 08:47:22;;;;;;;32.37;13.77;;;;;;;10.72;100.00;101487.50;4946916;28;20046;-76
2022/10/29 08:50:29;;;;;;;40.13;15.32;;;;;;;10.75;100.00;101489.03;4946971;28;20035;-75
2022/10/29 08:52:55;;;;;;;34.25;14.80;;;;;;;10.86;100.00;101491.50;4954667;28;20062;-76
2022/10/29 08:55:25;;;;;;;38.08;16.83;;;;;;;10.94;100.00;101478.25;4949033;28;20126;-75
2022/10/29 08:57:55;;;;;;;37.22;16.23;;;;;;;11.09;100.00;101493.81;4944927;28;20122;-76
2022/10/29 09:00:25;;;;;;;44.58;18.35;;;;;;;11.01;100.00;101499.06;4931296;29;20039;-76
2022/10/29 09:02:56;;;;;;;55.13;18.48;;;;;;;11.07;100.00;101503.78;4929091;28;20024;-76
2022/10/29 09:05:29;;;;;;;43.90;19.73;;;;;;;11.18;100.00;101490.25;4951500;28;20039;-76
2022/10/29 09:08:39;;;;;;;44.80;19.05;;;;;;;11.15;100.00;101482.53;4947521;28;20123;-76
2022/10/29 09:11:35;;;;;;;50.72;17.85;;;;;;;11.29;100.00;101483.88;4938327;28;20051;-76
2022/10/29 09:14:27;;;;;;;36.35;17.38;;;;;;;11.35;100.00;101475.25;4942857;28;20039;-76
2022/10/29 09:16:59;;;;;;;35.78;15.27;;;;;;;11.39;100.00;101460.59;4945863;28;20123;-76
2022/10/29 09:19:33;;;;;;;32.53;15.65;;;;;;;11.50;100.00;101467.56;4930754;29;20031;-76
2022/10/29 09:22:07;;;;;;;32.63;15.02;;;;;;;11.59;100.00;101455.97;4930589;29;20031;-76
2022/10/29 09:24:53;;;;;;;34.80;17.90;;;;;;;11.86;100.00;101451.53;4950717;28;20039;-76
2022/10/29 09:27:28;;;;;;;;;;;;;;;11.82;100.00;101451.84;4946799;28;20479;-75
2022/10/29 09:30:07;;;;;;;32.28;15.23;;;;;;;11.84;100.00;101444.47;4966190;28;19946;-76
2022/10/29 09:32:42;;;;;;;32.65;13.82;;;;;;;12.16;100.00;101445.78;4944005;28;20099;-76
2022/10/29 09:35:14;;;;;;;35.90;15.55;;;;;;;12.20;100.00;101454.34;4946499;28;20472;-75
2022/10/29 09:37:46;;;;;;;32.08;15.05;;;;;;;12.19;100.00;101437.44;4928119;28;20050;-76
2022/10/29 09:40:19;;;;;;;24.80;13.90;;;;;;;12.37;100.00;101444.59;4946820;28;20636;-76
2022/10/29 09:42:46;;;;;;;31.38;13.50;;;;;;;12.36;100.00;101434.88;4949528;28;20094;-75
2022/10/29 09:45:15;;;;;;;27.70;14.45;;;;;;;12.38;100.00;101432.88;4943035;28;20252;-76
2022/10/29 09:48:05;;;;;;;33.42;14.60;;;;;;;12.25;100.00;101439.50;4950268;28;20035;-75
2022/10/29 09:50:46;;;;;;;32.92;14.10;;;;;;;12.34;100.00;101435.03;4950270;28;20031;-76
2022/10/29 09:53:12;;;;;;;34.92;14.20;;;;;;;12.24;100.00;101429.78;4954067;28;20511;-76
2022/10/29 09:55:42;;;;;;;39.95;17.90;;;;;;;12.03;100.00;101416.75;4927794;29;20501;-75
2022/10/29 09:58:18;;;;;;;35.72;18.17;;;;;;;11.99;100.00;101404.69;4945892;28;20173;-75
2022/10/29 10:00:43;;;;;;;50.38;17.35;;;;;;;12.14;100.00;101415.66;4946990;28;20342;-75
2022/10/29 10:03:08;;;;;;;37.37;17.27;;;;;;;12.34;100.00;101428.81;4953817;28;20035;-76
2022/10/29 10:05:35;;;;;;;32.43;14.80;;;;;;;12.52;100.00;101432.28;4948679;28;20094;-76
2022/10/29 10:08:13;;;;;;;38.13;17.20;;;;;;;12.56;100.00;101417.59;4951005;28;20041;-75
2022/10/29 10:10:52;;;;;;;38.30;16.63;;;;;;;12.57;100.00;101408.56;4944943;28;20529;-75
2022/10/29 10:13:21;;;;;;;32.03;15.73;;;;;;;12.92;100.00;101419.25;4945907;29;20039;-75
2022/10/29 10:15:52;;;;;;;31.27;14.48;;;;;;;12.92;100.00;101398.66;4943731;28;20047;-75
2022/10/29 10:18:23;;;;;;;29.58;13.43;;;;;;;13.27;100.00;101404.78;4950715;28;20039;-75
2022/10/29 10:21:03;;;;;;;30.85;13.93;;;;;;;13.29;100.00;101394.78;4955058;28;20031;-76
2022/10/29 10:23:45;;;;;;;23.40;11.75;;;;;;;13.68;100.00;101388.81;4944653;28;20050;-75
2022/10/29 10:26:32;;;;;;;26.25;11.88;;;;;;;13.62;100.00;101376.88;4954813;28;20109;-75
2022/10/29 10:29:07;;;;;;;30.33;11.75;;;;;;;13.74;100.00;101363.97;4947233;28;20677;-75
2022/10/29 10:31:32;;;;;;;22.65;11.13;;;;;;;14.27;100.00;101359.88;4944821;28;20067;-75
2022/10/29 10:33:57;;;;;;;23.27;11.87;;;;;;;14.64;100.00;101339.63;4949204;28;20077;-75
2022/10/29 10:36:27;;;;;;;21.60;11.07;;;;;;;15.03;100.00;101319.94;4956063;28;20062;-75
2022/10/29 10:38:56;;;;;;;20.50;10.00;;;;;;;15.61;100.00;101272.72;4959640;28;20039;-75
2022/10/29 10:41:29;;;;;;;22.85;11.60;;;;;;;15.44;100.00;101216.56;4945745;28;20061;-75
2022/10/29 10:44:00;;;;;;;22.17;11.10;;;;;;;15.11;100.00;101176.53;4952090;28;20027;-75
2022/10/29 10:46:34;;;;;;;20.00;9.75;;;;;;;15.27;100.00;101173.69;4938656;28;20034;-75
2022/10/29 10:49:05;;;;;;;18.83;9.02;;;;;;;14.94;100.00;101136.34;4944786;28;20114;-75
2022/10/29 10:51:36;;;;;;;19.70;9.25;;;;;;;15.22;100.00;101170.69;4944875;28;20232;-75
2022/10/29 10:54:31;;;;;;;15.25;8.63;;;;;;;15.59;100.00;101188.66;4944796;28;20583;-75
2022/10/29 10:57:18;;;;;;;17.08;7.68;;;;;;;16.07;100.00;101155.16;4939035;28;20042;-75
2022/10/29 11:00:05;;;;;;;18.88;8.55;;;;;;;16.61;100.00;101081.91;4944313;28;20039;-75
2022/10/29 11:02:36;;;;;;;16.63;8.90;;;;;;;16.66;100.00;101033.63;4938067;29;20035;-75
2022/10/29 11:05:14;;;;;;;17.60;9.10;;;;;;;17.13;100.00;100955.75;4948918;28;20034;-75
2022/10/29 11:07:47;;;;;;;17.02;9.30;;;;;;;17.44;100.00;100895.88;4945254;28;20067;-75
2022/10/29 11:10:15;;;;;;;19.00;7.28;;;;;;;17.93;100.00;100822.66;4945044;28;20320;-75
2022/10/29 11:12:47;;;;;;;11.98;6.57;;;;;;;17.51;100.00;100729.38;4941853;28;20027;-75
2022/10/29 11:15:18;;;;;;;13.93;7.63;;;;;;;17.85;100.00;100738.31;4938432;28;20039;-75
2022/10/29 11:17:52;;;;;;;17.77;8.30;;;;;;;17.42;100.00;100630.78;4943020;28;20102;-75
2022/10/29 11:20:24;;;;;;;18.08;9.27;;;;;;;17.31;100.00;100594.47;4945206;28;20432;-75